Sign in

Goboko Update

Goboko is set to continue

The Goboko booking system is to continue under a new operator, a member of one of our longest-subscribed flying clubs

The new and previous operators of the site are working to ensure there will be no interruption to your booking service as the transition takes place. Of course, aircraft booking will continue to be free

Thank you for your continued commitment to Goboko

Info

Aviation weather

METAR KDAB 260653Z 24004KT 10SM CLR 16/15 A2989 RMK AO2 SLP120 T01610150

TAF KDAB 260524Z 2606/2706 25006KT P6SM FEW040 FM261700 18009KT P6SM SCT040 BKN250 FM270000 25005KT P6SM SKC

Aviation weather from ADDS. Re-check weather before flight.

-